Time;durP1;ratioP1;P1;durP2;ratioP2;P2;SDS_P1;SDS_P2;PMS_P1;PMS_P2;Temp;Humidity;BMP_temperature;BMP_pressure;BME280_temperature;BME280_humidity;BME280_pressure;Samples;Min_cycle;Max_cycle;Signal;HPM_P1;HPM_P2
2022/12/22 03:28:08;;;;;;;72.40;36.47;;;8.50;99.90;;;;;;5036854;28;20366;-70
2022/12/22 03:30:34;;;;;;;60.17;33.67;;;8.50;99.90;;;;;;5036033;28;20038;-70
2022/12/22 03:32:59;;;;;;;88.57;39.47;;;8.50;99.90;;;;;;5036518;28;20041;-70
2022/12/22 03:35:25;;;;;;;72.07;35.75;;;8.50;99.90;;;;;;5037066;28;20053;-69
2022/12/22 03:37:51;;;;;;;59.05;33.35;;;8.40;99.90;;;;;;5036497;28;20354;-69
2022/12/22 03:40:17;;;;;;;76.32;37.83;;;8.50;99.90;;;;;;5036367;28;20048;-69
2022/12/22 03:48:11;;;;;;;71.75;37.58;;;8.50;99.90;;;;;;5036408;28;20112;-70
2022/12/22 03:50:37;;;;;;;63.90;35.53;;;8.50;99.90;;;;;;5036738;28;20041;-70
2022/12/22 03:53:03;;;;;;;65.90;37.72;;;8.50;99.90;;;;;;5035924;28;20057;-70
2022/12/22 03:55:28;;;;;;;96.13;40.78;;;8.50;99.90;;;;;;5036593;28;20045;-70
2022/12/22 03:57:54;;;;;;;76.82;37.85;;;8.50;99.90;;;;;;5035997;28;20106;-69
2022/12/22 04:00:20;;;;;;;72.28;38.90;;;8.50;99.90;;;;;;5035657;28;20049;-70
2022/12/22 04:02:45;;;;;;;71.15;35.78;;;8.50;99.90;;;;;;5035831;28;20049;-70
2022/12/22 04:05:14;;;;;;;71.20;38.95;;;8.50;99.90;;;;;;5035338;28;20104;-70
2022/12/22 04:07:39;;;;;;;77.93;38.90;;;8.50;99.90;;;;;;5035713;28;20143;-70
2022/12/22 04:12:53;;;;;;;69.70;39.15;;;8.50;99.90;;;;;;5036287;28;20429;-70
2022/12/22 04:15:24;;;;;;;79.68;40.58;;;8.50;99.90;;;;;;5034886;28;20121;-70
2022/12/22 04:17:50;;;;;;;96.90;42.17;;;8.40;99.90;;;;;;5035801;28;20107;-70
2022/12/22 04:20:16;;;;;;;90.85;43.42;;;8.50;99.90;;;;;;5035598;28;20080;-70
2022/12/22 04:22:42;;;;;;;85.60;42.03;;;8.50;99.90;;;;;;5035462;28;20116;-70
2022/12/22 04:25:08;;;;;;;97.43;42.38;;;8.50;99.90;;;;;;5035634;28;20131;-70
2022/12/22 04:27:33;;;;;;;123.22;46.95;;;8.50;99.90;;;;;;5035573;28;20369;-70
2022/12/22 04:29:59;;;;;;;85.45;42.72;;;8.50;99.90;;;;;;5035667;28;20125;-70
2022/12/22 04:32:25;;;;;;;119.70;46.88;;;8.70;99.90;;;;;;5035884;28;20451;-69
2022/12/22 04:34:50;;;;;;;81.85;41.15;;;8.50;99.90;;;;;;5035610;28;20041;-70
2022/12/22 04:37:16;;;;;;;116.82;43.95;;;8.50;99.90;;;;;;5018617;28;20057;-70
2022/12/22 04:39:41;;;;;;;119.07;44.35;;;8.50;99.90;;;;;;5035930;28;20339;-70
2022/12/22 04:42:07;;;;;;;115.63;44.63;;;8.50;99.90;;;;;;5035416;28;20051;-70
2022/12/22 04:44:32;;;;;;;107.70;43.33;;;8.50;99.90;;;;;;5034788;28;20045;-70
2022/12/22 04:46:58;;;;;;;135.05;47.17;;;8.50;99.90;;;;;;5035075;28;20095;-70
2022/12/22 04:49:24;;;;;;;102.35;44.85;;;8.50;99.90;;;;;;5035701;28;20049;-70
2022/12/22 04:51:49;;;;;;;112.85;43.55;;;8.40;99.90;;;;;;5035038;28;20064;-70
2022/12/22 04:54:15;;;;;;;140.40;49.05;;;8.50;99.90;;;;;;5035461;28;20117;-70
2022/12/22 04:56:40;;;;;;;175.95;51.80;;;8.40;99.90;;;;;;5034994;28;20048;-70
2022/12/22 04:59:06;;;;;;;163.43;50.08;;;8.40;99.90;;;;;;5018422;28;20045;-69
2022/12/22 05:01:32;;;;;;;151.07;46.63;;;8.50;99.90;;;;;;5001078;28;20045;-70
2022/12/22 05:03:57;;;;;;;130.40;45.38;;;8.50;99.90;;;;;;5040008;28;20041;-69
2022/12/22 05:06:23;;;;;;;117.93;46.35;;;8.40;99.90;;;;;;5024470;28;20115;-70
2022/12/22 05:08:48;;;;;;;120.25;46.03;;;8.50;99.90;;;;;;5041691;28;20076;-70
2022/12/22 05:11:14;;;;;;;127.95;47.20;;;8.60;99.90;;;;;;5023775;28;20064;-70
2022/12/22 05:13:39;;;;;;;144.95;47.25;;;8.60;99.90;;;;;;5024100;28;20060;-69
2022/12/22 05:16:11;;;;;;;121.32;45.95;;;8.50;99.90;;;;;;5040590;28;20045;-70
2022/12/22 05:18:38;;;;;;;173.70;51.40;;;8.50;99.90;;;;;;5041041;28;20450;-69
2022/12/22 05:21:12;;;;;;;117.25;44.42;;;8.50;99.90;;;;;;5041545;28;20099;-70
2022/12/22 05:23:39;;;;;;;141.18;49.47;;;8.50;99.90;;;;;;5041692;28;20041;-69
2022/12/22 05:26:04;;;;;;;134.05;45.15;;;8.50;99.90;;;;;;5041333;28;20136;-70
2022/12/22 05:28:31;;;;;;;128.52;46.58;;;8.40;99.90;;;;;;5040884;28;20124;-69
2022/12/22 05:30:56;;;;;;;137.90;47.78;;;8.50;99.90;;;;;;5041215;28;20106;-69
2022/12/22 05:33:22;;;;;;;127.82;47.10;;;8.50;99.90;;;;;;5024192;28;20045;-70
2022/12/22 05:35:48;;;;;;;155.18;50.33;;;8.50;99.90;;;;;;5041695;28;20049;-69
2022/12/22 05:38:13;;;;;;;135.52;48.53;;;8.50;99.90;;;;;;5041495;28;20318;-69
2022/12/22 05:40:39;;;;;;;163.43;50.55;;;8.50;99.90;;;;;;5041284;28;20143;-70
2022/12/22 05:43:04;;;;;;;136.43;47.97;;;8.50;99.90;;;;;;5041934;28;20337;-70
2022/12/22 05:45:30;;;;;;;136.30;47.90;;;8.40;99.90;;;;;;5040519;28;20049;-70
2022/12/22 05:47:56;;;;;;;133.68;47.42;;;8.50;99.90;;;;;;5041254;28;20377;-70
2022/12/22 05:50:23;;;;;;;129.55;46.25;;;8.50;99.90;;;;;;5041460;28;20038;-70
2022/12/22 05:52:49;;;;;;;147.77;49.60;;;8.40;99.90;;;;;;5041184;28;20103;-70
2022/12/22 05:55:15;;;;;;;140.60;48.60;;;8.40;99.90;;;;;;5041306;28;20125;-70
2022/12/22 05:57:42;;;;;;;143.50;47.38;;;8.50;99.90;;;;;;5040889;28;20160;-69
2022/12/22 06:00:11;;;;;;;146.65;49.75;;;8.40;99.90;;;;;;5040707;28;20354;-70
2022/12/22 06:02:37;;;;;;;143.32;47.17;;;8.40;99.90;;;;;;5041106;28;20045;-70
2022/12/22 06:05:03;;;;;;;187.68;54.05;;;8.40;99.90;;;;;;5040816;28;20045;-69
2022/12/22 06:07:29;;;;;;;192.00;49.83;;;8.40;99.90;;;;;;5040967;28;20060;-70
2022/12/22 06:09:55;;;;;;;141.75;46.47;;;8.40;99.90;;;;;;5041250;28;20045;-69
2022/12/22 06:12:20;;;;;;;136.90;46.22;;;8.40;99.90;;;;;;5023474;28;20049;-70
2022/12/22 06:14:46;;;;;;;147.75;49.35;;;8.30;99.90;;;;;;5036991;28;20036;-69
2022/12/22 06:17:12;;;;;;;187.48;51.35;;;8.40;99.90;;;;;;5037478;28;20046;-70
2022/12/22 06:19:37;;;;;;;178.73;51.25;;;8.30;99.90;;;;;;5020918;28;20099;-70
2022/12/22 06:22:03;;;;;;;179.73;50.05;;;8.20;99.90;;;;;;5037380;28;20049;-70
2022/12/22 06:24:29;;;;;;;141.45;49.05;;;8.20;99.90;;;;;;5037909;28;20061;-70
2022/12/22 06:26:54;;;;;;;151.88;49.75;;;8.20;99.90;;;;;;5037598;28;20346;-69
2022/12/22 06:29:20;;;;;;;128.50;46.47;;;8.10;99.90;;;;;;5037249;28;20037;-69
2022/12/22 06:31:45;;;;;;;159.77;47.95;;;8.10;99.90;;;;;;5036872;28;20045;-70
2022/12/22 06:34:11;;;;;;;189.25;52.42;;;8.10;99.90;;;;;;5037279;28;20038;-70
2022/12/22 06:36:37;;;;;;;181.65;50.00;;;8.10;99.90;;;;;;5037815;28;20052;-70
2022/12/22 06:39:04;;;;;;;157.68;47.33;;;8.10;99.90;;;;;;5037443;28;20373;-70
2022/12/22 06:44:14;;;;;;;120.85;41.83;;;7.90;99.90;;;;;;5036887;28;20132;-70
2022/12/22 06:46:41;;;;;;;108.40;41.53;;;7.90;99.90;;;;;;5019876;28;20414;-70
2022/12/22 06:49:06;;;;;;;107.13;40.03;;;7.80;99.90;;;;;;5037045;28;20060;-70
2022/12/22 06:51:32;;;;;;;137.43;45.08;;;7.70;99.90;;;;;;5037061;28;20043;-69
2022/12/22 06:53:57;;;;;;;98.15;37.60;;;7.50;99.90;;;;;;5036901;28;20041;-70
2022/12/22 06:56:23;;;;;;;115.85;38.42;;;7.50;99.90;;;;;;5036817;28;20524;-70
2022/12/22 06:58:48;;;;;;;129.63;39.85;;;7.30;99.90;;;;;;5037102;28;20132;-70
2022/12/22 07:01:14;;;;;;;103.28;39.22;;;7.20;99.90;;;;;;5019351;28;20461;-70
2022/12/22 07:03:39;;;;;;;155.68;41.72;;;7.20;99.90;;;;;;5036454;28;20103;-70
2022/12/22 07:06:05;;;;;;;160.85;41.50;;;7.10;99.90;;;;;;5037053;28;20049;-70
2022/12/22 07:08:31;;;;;;;121.85;40.15;;;7.00;99.90;;;;;;5036702;28;20444;-70
2022/12/22 07:10:56;;;;;;;189.25;43.00;;;6.90;99.90;;;;;;5036453;28;20038;-69
2022/12/22 07:13:23;;;;;;;165.70;41.88;;;6.80;99.90;;;;;;5037084;28;20041;-71
2022/12/22 07:15:49;;;;;;;137.85;40.78;;;6.70;99.90;;;;;;5037011;28;20046;-70
2022/12/22 07:18:15;;;;;;;120.88;41.08;;;6.70;99.90;;;;;;5036231;28;20181;-69
2022/12/22 07:20:40;;;;;;;116.10;39.17;;;6.70;99.90;;;;;;5036568;28;20152;-70
2022/12/22 07:23:07;;;;;;;158.18;45.63;;;6.90;99.90;;;;;;5036503;28;20520;-70
2022/12/22 07:25:33;;;;;;;210.48;50.78;;;6.70;99.90;;;;;;5035845;28;20041;-70
2022/12/22 07:27:59;;;;;;;161.18;47.38;;;6.80;99.90;;;;;;5019507;28;20187;-70
2022/12/22 07:30:24;;;;;;;196.80;49.70;;;6.80;99.90;;;;;;5036388;28;20425;-70
2022/12/22 07:32:50;;;;;;;186.43;47.13;;;6.80;99.90;;;;;;5019250;28;20046;-70
2022/12/22 07:35:16;;;;;;;184.85;48.90;;;6.90;99.90;;;;;;5036547;28;20053;-70
2022/12/22 07:37:41;;;;;;;220.23;50.63;;;6.90;99.90;;;;;;5035847;28;20533;-70
2022/12/22 07:40:07;;;;;;;209.13;50.22;;;7.10;99.90;;;;;;5036197;28;20055;-69
2022/12/22 07:42:45;;;;;;;158.38;46.47;;;7.10;99.90;;;;;;5019276;28;20049;-70
2022/12/22 07:45:12;;;;;;;160.18;45.33;;;7.10;99.90;;;;;;5036333;28;20045;-69
2022/12/22 07:47:38;;;;;;;155.75;43.40;;;7.20;99.90;;;;;;5018916;28;20064;-70
2022/12/22 07:52:49;;;;;;;149.25;42.35;;;7.10;99.90;;;;;;5036028;28;20440;-69
2022/12/22 07:55:15;;;;;;;159.25;43.42;;;7.10;99.90;;;;;;5036053;28;20133;-70
2022/12/22 07:57:40;;;;;;;135.55;40.63;;;7.10;99.90;;;;;;5035510;28;20056;-70
2022/12/22 08:00:07;;;;;;;130.85;39.67;;;7.10;99.90;;;;;;5036630;28;20303;-70
2022/12/22 08:02:32;;;;;;;125.22;37.60;;;7.10;99.90;;;;;;5018454;28;20053;-70
2022/12/22 08:04:58;;;;;;;109.22;36.17;;;7.10;99.90;;;;;;5035248;28;20124;-70
2022/12/22 08:07:23;;;;;;;105.88;33.80;;;7.10;99.90;;;;;;5018703;28;20493;-69
2022/12/22 08:09:49;;;;;;;89.50;32.03;;;7.10;99.90;;;;;;5035729;28;20053;-69
2022/12/22 08:12:15;;;;;;;104.32;32.50;;;7.10;99.90;;;;;;5035689;28;20038;-70
2022/12/22 08:14:44;;;;;;;86.28;29.40;;;7.30;99.90;;;;;;5035893;28;20111;-70
2022/12/22 08:17:13;;;;;;;108.22;30.88;;;7.00;99.90;;;;;;5035491;28;20060;-70
2022/12/22 08:19:39;;;;;;;88.22;28.95;;;7.00;99.90;;;;;;5035453;28;20044;-70
2022/12/22 08:22:04;;;;;;;102.40;31.17;;;6.90;99.90;;;;;;5035332;28;20135;-70
2022/12/22 08:24:30;;;;;;;138.02;35.33;;;6.90;99.90;;;;;;5035473;28;20038;-70
2022/12/22 08:27:00;;;;;;;104.85;31.08;;;7.00;99.90;;;;;;5035037;28;20080;-70
2022/12/22 08:29:32;;;;;;;96.00;30.30;;;7.00;99.90;;;;;;5035461;28;20382;-70
2022/12/22 08:31:59;;;;;;;77.43;28.50;;;7.00;99.90;;;;;;5018888;28;20128;-70
2022/12/22 08:34:25;;;;;;;89.18;29.85;;;7.00;99.90;;;;;;5035807;28;20102;-70
2022/12/22 08:36:55;;;;;;;77.75;28.20;;;7.00;99.90;;;;;;5034868;28;20038;-70
2022/12/22 08:39:22;;;;;;;73.43;27.13;;;7.10;99.90;;;;;;5000450;28;20061;-70
2022/12/22 08:41:51;;;;;;;75.57;27.63;;;7.00;99.90;;;;;;5034448;28;20134;-70
2022/12/22 08:44:20;;;;;;;96.25;30.45;;;7.10;99.90;;;;;;5035387;28;20049;-71
2022/12/22 08:46:46;;;;;;;75.00;29.33;;;7.10;99.90;;;;;;5034717;28;20045;-70
2022/12/22 08:49:12;;;;;;;102.03;33.75;;;7.10;99.90;;;;;;5035061;28;20060;-70
2022/12/22 08:51:38;;;;;;;91.90;40.50;;;7.30;99.90;;;;;;5035041;28;20041;-70
2022/12/22 08:54:03;;;;;;;87.90;31.35;;;7.10;99.90;;;;;;5035273;28;20049;-70
2022/12/22 08:56:30;;;;;;;78.25;29.63;;;7.10;99.90;;;;;;5034516;28;20076;-70
2022/12/22 08:58:55;;;;;;;86.95;29.17;;;7.10;99.90;;;;;;5033558;28;20045;-70
2022/12/22 09:01:22;;;;;;;89.70;30.77;;;7.00;99.90;;;;;;5034806;28;20056;-70
2022/12/22 09:03:52;;;;;;;76.47;28.33;;;7.10;99.90;;;;;;5035052;28;20144;-70
2022/12/22 09:06:19;;;;;;;74.47;28.30;;;7.10;99.90;;;;;;5034809;28;20038;-69
2022/12/22 09:08:45;;;;;;;83.47;30.63;;;7.10;99.90;;;;;;5034568;28;20465;-70
2022/12/22 09:11:11;;;;;;;88.18;30.42;;;7.10;99.90;;;;;;5035007;28;20037;-70
2022/12/22 09:13:36;;;;;;;91.20;34.50;;;7.10;99.90;;;;;;5034672;28;20049;-70
2022/12/22 09:16:06;;;;;;;58.55;26.10;;;7.10;99.90;;;;;;5034855;28;20476;-70
2022/12/22 09:18:32;;;;;;;62.88;25.27;;;7.00;99.90;;;;;;5034703;28;20089;-70
2022/12/22 09:20:58;;;;;;;75.40;28.58;;;7.00;99.90;;;;;;5034547;28;20398;-69
2022/12/22 09:23:24;;;;;;;80.05;30.10;;;7.00;99.90;;;;;;5034961;28;20041;-70
2022/12/22 09:25:50;;;;;;;73.20;29.45;;;7.00;99.90;;;;;;5016927;28;20556;-70
2022/12/22 09:28:16;;;;;;;68.22;26.33;;;7.00;99.90;;;;;;5034521;28;20037;-70
2022/12/22 09:30:42;;;;;;;49.50;22.52;;;7.00;99.90;;;;;;5034643;28;20445;-70
2022/12/22 09:33:07;;;;;;;77.15;27.55;;;7.00;99.90;;;;;;5017631;28;20468;-70
2022/12/22 09:35:33;;;;;;;111.28;55.00;;;7.00;99.90;;;;;;5000714;28;20053;-70
2022/12/22 09:37:59;;;;;;;79.75;22.77;;;7.10;99.90;;;;;;5034624;28;20505;-70
2022/12/22 09:40:25;;;;;;;61.58;24.75;;;6.90;99.90;;;;;;5034768;28;20104;-69
2022/12/22 09:42:51;;;;;;;80.65;36.63;;;6.90;99.90;;;;;;5034053;28;20049;-70
2022/12/22 09:45:20;;;;;;;79.70;23.08;;;6.90;99.90;;;;;;5034486;28;20044;-70
2022/12/22 09:47:52;;;;;;;41.75;19.65;;;6.90;99.90;;;;;;5017183;28;20049;-70
2022/12/22 09:50:22;;;;;;;53.25;19.73;;;6.90;99.90;;;;;;5037986;28;20128;-70
2022/12/22 09:52:56;;;;;;;46.85;18.55;;;6.90;99.90;;;;;;5038576;28;20049;-70
2022/12/22 09:55:24;;;;;;;35.08;17.98;;;6.90;99.90;;;;;;5038031;28;20045;-70
2022/12/22 09:57:52;;;;;;;31.40;19.58;;;6.90;99.90;;;;;;5038160;28;20045;-70
2022/12/22 10:00:21;;;;;;;25.15;15.75;;;6.80;99.90;;;;;;5038252;28;20136;-70
2022/12/22 10:03:08;;;;;;;35.20;15.77;;;6.80;99.90;;;;;;5038432;28;20092;-69
2022/12/22 10:05:58;;;;;;;44.20;17.27;;;6.80;99.90;;;;;;5038291;28;20083;-70
2022/12/22 10:08:30;;;;;;;42.22;19.27;;;6.80;99.90;;;;;;5038200;28;20085;-70
2022/12/22 10:10:56;;;;;;;50.25;17.08;;;6.80;99.90;;;;;;5037680;28;20045;-69
2022/12/22 10:13:22;;;;;;;29.98;15.48;;;6.80;99.90;;;;;;5037671;28;20041;-70
2022/12/22 10:15:48;;;;;;;31.00;15.95;;;6.70;99.90;;;;;;5037916;28;20038;-70
2022/12/22 10:18:16;;;;;;;34.10;16.20;;;6.80;99.90;;;;;;5037759;28;20135;-70
2022/12/22 10:21:06;;;;;;;32.42;14.88;;;6.80;99.90;;;;;;5038181;28;20391;-69
2022/12/22 10:23:34;;;;;;;32.30;14.23;;;6.80;99.90;;;;;;5037852;28;20060;-69
2022/12/22 10:26:11;;;;;;;37.47;16.73;;;6.80;99.90;;;;;;5037495;28;20064;-69
2022/12/22 10:28:53;;;;;;;36.38;16.35;;;6.90;99.90;;;;;;5020299;28;20128;-70
2022/12/22 10:31:20;;;;;;;28.73;15.65;;;6.90;99.90;;;;;;5020758;28;20053;-70
2022/12/22 10:33:50;;;;;;;36.58;18.58;;;7.10;99.90;;;;;;5037427;28;20060;-70
2022/12/22 10:36:23;;;;;;;33.92;18.45;;;7.10;99.90;;;;;;5037661;28;20457;-70
2022/12/22 10:38:53;;;;;;;37.33;19.33;;;7.20;99.90;;;;;;5037121;28;20052;-70
2022/12/22 10:41:21;;;;;;;35.85;22.80;;;7.20;99.90;;;;;;5020215;28;20049;-70
2022/12/22 10:43:54;;;;;;;58.83;37.38;;;7.40;99.90;;;;;;5037176;28;20041;-69
2022/12/22 10:46:30;;;;;;;37.67;19.08;;;7.40;99.90;;;;;;5037241;28;20057;-70
2022/12/22 10:49:09;;;;;;;35.47;18.23;;;7.50;99.90;;;;;;5037617;28;20099;-70
2022/12/22 10:51:34;;;;;;;34.45;17.60;;;7.80;99.90;;;;;;5037357;28;20099;-70
2022/12/22 10:54:00;;;;;;;38.88;19.90;;;7.80;99.90;;;;;;5036824;28;20041;-70
2022/12/22 10:56:28;;;;;;;28.70;14.77;;;7.80;99.90;;;;;;5036686;28;20041;-69
2022/12/22 10:58:56;;;;;;;27.27;14.77;;;7.90;99.90;;;;;;5037722;28;20038;-70
2022/12/22 11:01:24;;;;;;;26.17;13.88;;;7.90;99.90;;;;;;5036521;28;20045;-70
2022/12/22 11:03:50;;;;;;;28.55;18.42;;;7.90;99.90;;;;;;5037151;28;20335;-69
2022/12/22 11:06:15;;;;;;;22.95;13.38;;;7.90;99.90;;;;;;5019361;28;20203;-70
2022/12/22 11:08:41;;;;;;;25.38;14.18;;;7.90;99.90;;;;;;5036401;28;20052;-70
2022/12/22 11:11:34;;;;;;;27.20;13.68;;;7.90;99.90;;;;;;5036693;28;20050;-70
2022/12/22 11:14:11;;;;;;;31.17;15.48;;;7.90;99.90;;;;;;5036476;28;20098;-70
2022/12/22 11:16:56;;;;;;;28.48;15.82;;;7.90;99.90;;;;;;5036720;28;20041;-70
2022/12/22 11:19:48;;;;;;;27.00;13.25;;;7.90;99.90;;;;;;5036841;28;20041;-70
2022/12/22 11:22:26;;;;;;;23.55;12.77;;;7.80;99.90;;;;;;5036495;28;20507;-70
2022/12/22 11:25:19;;;;;;;27.00;13.65;;;7.70;99.90;;;;;;5036300;28;20458;-70
2022/12/22 11:27:55;;;;;;;26.45;12.57;;;7.60;99.90;;;;;;5036342;28;20119;-70
2022/12/22 11:30:48;;;;;;;26.25;13.43;;;7.60;99.90;;;;;;5036745;28;20038;-70
2022/12/22 11:33:23;;;;;;;23.13;13.13;;;7.50;99.90;;;;;;5036639;28;20091;-70
2022/12/22 11:35:57;;;;;;;25.85;14.02;;;7.50;99.90;;;;;;5036098;28;20045;-70
2022/12/22 11:38:46;;;;;;;39.15;27.25;;;7.80;99.90;;;;;;5035908;28;20044;-70
2022/12/22 11:41:28;;;;;;;23.60;11.73;;;7.50;99.90;;;;;;5019105;28;20133;-70
2022/12/22 11:44:12;;;;;;;24.85;13.98;;;7.50;99.90;;;;;;5036545;28;20054;-70
2022/12/22 11:46:53;;;;;;;27.80;14.43;;;7.50;99.90;;;;;;5036347;28;20041;-69
2022/12/22 11:49:27;;;;;;;25.73;13.27;;;7.50;99.90;;;;;;5036289;28;20072;-70
2022/12/22 11:52:08;;;;;;;31.30;15.18;;;7.50;99.90;;;;;;5036131;28;20061;-70
2022/12/22 11:54:41;;;;;;;27.38;11.70;;;7.60;99.90;;;;;;5035404;28;20049;-70
2022/12/22 11:57:25;;;;;;;20.48;11.80;;;7.60;99.90;;;;;;5036420;28;20124;-70
2022/12/22 11:59:57;;;;;;;21.60;10.57;;;7.70;99.90;;;;;;5035706;28;20050;-70
2022/12/22 12:02:31;;;;;;;23.25;11.45;;;7.70;99.90;;;;;;5036011;28;20091;-70
2022/12/22 12:05:02;;;;;;;22.08;11.30;;;7.80;99.90;;;;;;5036525;28;20199;-69
2022/12/22 12:07:39;;;;;;;18.95;10.60;;;7.90;99.90;;;;;;5035818;28;20064;-70
2022/12/22 12:10:24;;;;;;;22.67;10.68;;;7.80;99.90;;;;;;5034745;28;20469;-70
2022/12/22 12:13:04;;;;;;;24.83;12.00;;;7.80;99.90;;;;;;5034952;28;20085;-69
2022/12/22 12:15:43;;;;;;;20.88;10.77;;;7.80;99.90;;;;;;5035469;28;20049;-69
2022/12/22 12:18:49;;;;;;;168.15;120.10;;;7.80;99.90;;;;;;5035351;28;20057;-70
2022/12/22 12:21:23;;;;;;;22.88;11.10;;;7.80;99.90;;;;;;5035776;28;20199;-70
2022/12/22 12:24:25;;;;;;;26.15;11.95;;;7.80;99.90;;;;;;5035480;28;20045;-70
2022/12/22 12:27:27;;;;;;;21.15;11.70;;;7.80;99.90;;;;;;5035457;28;20061;-69
2022/12/22 12:30:10;;;;;;;25.80;12.23;;;7.80;99.90;;;;;;5035202;28;20071;-70
2022/12/22 12:32:58;;;;;;;23.85;12.70;;;7.80;99.90;;;;;;5001605;28;20118;-70
2022/12/22 12:35:58;;;;;;;22.63;10.80;;;7.80;99.90;;;;;;5035314;28;20057;-70
2022/12/22 12:38:32;;;;;;;21.52;10.20;;;7.80;99.90;;;;;;5035158;28;20054;-70
2022/12/22 12:41:25;;;;;;;24.02;11.40;;;7.80;99.90;;;;;;5017916;28;20060;-70
2022/12/22 12:43:53;;;;;;;22.50;10.27;;;7.90;99.90;;;;;;5035281;28;20461;-69
2022/12/22 12:46:40;;;;;;;25.58;10.55;;;7.90;99.90;;;;;;5035449;28;20042;-70
2022/12/22 12:49:35;;;;;;;21.85;10.45;;;7.90;99.90;;;;;;5018196;28;20354;-70
2022/12/22 12:52:08;;;;;;;24.65;10.43;;;7.90;99.90;;;;;;5035189;28;20045;-70
2022/12/22 12:55:18;;;;;;;22.15;10.27;;;7.90;99.90;;;;;;5034721;28;20037;-70
2022/12/22 12:57:48;;;;;;;23.55;10.60;;;7.90;99.90;;;;;;5014380;28;20053;-70
2022/12/22 13:00:32;;;;;;;19.88;9.90;;;8.00;99.90;;;;;;5035152;28;20045;-70
2022/12/22 13:03:24;;;;;;;20.63;9.55;;;8.00;99.90;;;;;;5035168;28;20053;-70
2022/12/22 13:05:52;;;;;;;22.95;9.45;;;8.00;99.90;;;;;;5021805;28;20045;-70
2022/12/22 13:08:23;;;;;;;17.88;8.27;;;8.00;99.90;;;;;;5035077;28;20136;-70
2022/12/22 13:10:52;;;;;;;25.38;8.85;;;8.10;99.90;;;;;;5034409;28;20041;-70
2022/12/22 13:13:20;;;;;;;17.92;7.45;;;8.10;99.90;;;;;;5034321;28;20046;-70
2022/12/22 13:16:06;;;;;;;16.63;7.35;;;8.20;99.90;;;;;;5034444;28;20053;-70
2022/12/22 13:18:32;;;;;;;19.42;7.72;;;8.30;99.90;;;;;;4999856;28;20443;-70
2022/12/22 13:21:14;;;;;;;23.77;7.38;;;8.30;99.90;;;;;;5034778;28;20136;-71
2022/12/22 13:24:08;;;;;;;20.83;7.25;;;8.30;99.90;;;;;;5035740;28;20057;-70
2022/12/22 13:26:39;;;;;;;19.80;8.13;;;8.30;99.90;;;;;;5000441;28;20468;-70
2022/12/22 13:29:25;;;;;;;13.32;6.32;;;8.50;99.90;;;;;;5039123;28;20128;-69
2022/12/22 13:31:54;;;;;;;21.98;6.57;;;8.40;99.90;;;;;;5038616;28;20041;-70
2022/12/22 13:34:52;;;;;;;21.00;7.35;;;8.50;99.90;;;;;;5038458;28;20057;-69
2022/12/22 13:37:24;;;;;;;15.55;6.40;;;8.50;99.90;;;;;;5038384;28;20449;-70
2022/12/22 13:40:11;;;;;;;22.42;6.60;;;8.60;99.90;;;;;;5038748;28;20037;-69
2022/12/22 13:42:40;;;;;;;15.60;6.80;;;8.60;99.90;;;;;;5038642;28;20128;-70
2022/12/22 13:45:15;;;;;;;20.88;7.30;;;8.70;99.90;;;;;;5038311;28;20123;-70
2022/12/22 13:47:42;;;;;;;19.35;7.40;;;8.70;99.90;;;;;;5037983;28;20041;-70
2022/12/22 13:50:31;;;;;;;21.92;7.25;;;8.70;99.90;;;;;;5039188;28;20315;-70
2022/12/22 13:52:57;;;;;;;14.00;6.70;;;9.20;99.90;;;;;;5038257;28;20115;-69
2022/12/22 13:55:28;;;;;;;21.30;9.23;;;9.00;99.90;;;;;;5038183;28;20034;-70
2022/12/22 13:57:57;;;;;;;24.15;11.38;;;8.80;99.90;;;;;;5037972;28;20046;-69
2022/12/22 14:00:25;;;;;;;22.33;8.75;;;8.80;99.90;;;;;;5038277;28;20100;-70
2022/12/22 14:02:50;;;;;;;23.75;10.02;;;8.80;99.90;;;;;;5037838;28;20038;-69
2022/12/22 14:05:16;;;;;;;16.48;6.60;;;8.80;99.90;;;;;;5038076;28;20095;-69
2022/12/22 14:08:03;;;;;;;19.63;5.60;;;8.90;99.90;;;;;;5037999;28;20338;-70
2022/12/22 14:10:38;;;;;;;18.48;6.35;;;8.90;99.90;;;;;;5038014;28;20049;-70
2022/12/22 14:13:10;;;;;;;20.63;6.00;;;8.90;99.90;;;;;;5038152;28;20037;-70
2022/12/22 14:15:36;;;;;;;16.20;6.10;;;8.90;99.90;;;;;;5038003;28;20049;-70
2022/12/22 14:18:02;;;;;;;14.32;7.05;;;9.00;99.90;;;;;;5037289;28;20450;-70
2022/12/22 14:20:35;;;;;;;17.38;5.50;;;9.00;99.90;;;;;;5038297;28;20111;-70
2022/12/22 14:23:02;;;;;;;13.38;5.30;;;9.00;99.90;;;;;;5037778;28;20080;-70
2022/12/22 14:25:35;;;;;;;15.98;4.68;;;9.10;99.90;;;;;;5037149;28;20450;-70
2022/12/22 14:28:03;;;;;;;15.13;5.35;;;9.00;99.90;;;;;;5038541;28;20076;-70
2022/12/22 14:30:36;;;;;;;18.48;5.15;;;9.00;99.90;;;;;;5036529;28;20084;-69
2022/12/22 14:33:14;;;;;;;10.60;4.63;;;9.00;99.90;;;;;;5037153;28;20068;-70
2022/12/22 14:35:40;;;;;;;18.13;5.00;;;9.00;99.90;;;;;;5036593;28;20103;-69
2022/12/22 14:38:05;;;;;;;15.68;4.95;;;8.90;99.90;;;;;;5037524;28;20045;-70
2022/12/22 14:40:39;;;;;;;11.63;4.47;;;8.90;99.90;;;;;;5019772;28;20049;-70
2022/12/22 14:43:17;;;;;;;16.48;4.70;;;8.90;99.90;;;;;;5037373;28;20050;-70
2022/12/22 14:45:45;;;;;;;15.13;4.25;;;8.80;99.90;;;;;;5019751;28;20099;-70
2022/12/22 14:48:20;;;;;;;13.60;4.43;;;8.90;99.90;;;;;;5036931;28;20045;-70
2022/12/22 14:50:52;;;;;;;10.70;3.47;;;9.00;99.90;;;;;;5037248;28;20148;-70
2022/12/22 14:53:34;;;;;;;11.88;3.83;;;8.70;99.90;;;;;;5037497;28;20085;-70
2022/12/22 14:56:00;;;;;;;16.87;3.90;;;8.70;99.90;;;;;;5037490;28;20136;-70
2022/12/22 14:58:33;;;;;;;21.40;4.65;;;8.60;99.90;;;;;;5036868;28;20459;-70
2022/12/22 15:01:16;;;;;;;16.10;5.30;;;8.60;99.90;;;;;;5036881;28;20065;-70
2022/12/22 15:03:43;;;;;;;18.63;5.90;;;8.50;99.90;;;;;;5036733;28;20049;-70
2022/12/22 15:06:27;;;;;;;18.38;5.93;;;8.40;99.90;;;;;;5037198;28;20053;-69
2022/12/22 15:09:10;;;;;;;13.15;5.57;;;8.30;99.90;;;;;;5019654;28;20045;-69
2022/12/22 15:11:40;;;;;;;15.88;5.93;;;8.20;99.90;;;;;;5036999;28;20053;-69
2022/12/22 15:14:10;;;;;;;15.90;6.05;;;8.20;99.90;;;;;;5037535;28;20092;-69
2022/12/22 15:16:36;;;;;;;20.17;5.85;;;8.10;99.90;;;;;;5036733;28;20037;-69
2022/12/22 15:19:03;;;;;;;15.57;6.30;;;8.10;99.90;;;;;;5036366;28;20349;-69
2022/12/22 15:21:30;;;;;;;18.02;7.65;;;8.00;99.90;;;;;;5036644;28;20048;-69
2022/12/22 15:23:55;;;;;;;15.70;6.90;;;8.00;99.90;;;;;;5036850;28;20132;-69
2022/12/22 15:26:21;;;;;;;15.05;8.13;;;8.10;99.90;;;;;;5036614;28;20501;-69
2022/12/22 15:28:46;;;;;;;20.23;7.47;;;8.00;99.90;;;;;;5036273;28;20068;-69
2022/12/22 15:31:14;;;;;;;23.10;8.35;;;8.00;99.90;;;;;;5036103;28;20128;-69
2022/12/22 15:33:41;;;;;;;24.30;8.85;;;8.00;99.90;;;;;;5036333;28;20137;-70
2022/12/22 15:36:12;;;;;;;15.38;8.27;;;8.10;99.90;;;;;;5036703;28;20319;-70
2022/12/22 15:38:39;;;;;;;19.90;8.95;;;8.10;99.90;;;;;;5037124;28;20049;-69
2022/12/22 15:41:05;;;;;;;20.88;8.65;;;8.40;99.90;;;;;;5036665;28;20041;-70
2022/12/22 15:43:30;;;;;;;24.02;12.73;;;8.10;99.90;;;;;;5036240;28;20418;-70
2022/12/22 15:45:56;;;;;;;14.93;8.30;;;8.10;99.90;;;;;;5035975;28;20132;-70
2022/12/22 15:48:31;;;;;;;10.73;7.35;;;8.10;99.90;;;;;;5035924;28;20060;-69
2022/12/22 15:50:58;;;;;;;16.80;7.57;;;8.00;99.90;;;;;;5036360;28;20046;-69
2022/12/22 15:53:23;;;;;;;15.77;10.70;;;8.00;99.90;;;;;;5036384;28;20049;-69
2022/12/22 15:55:52;;;;;;;19.60;10.23;;;8.00;99.90;;;;;;5019041;28;20050;-69
2022/12/22 15:58:23;;;;;;;17.63;9.00;;;8.00;99.90;;;;;;5036147;28;20115;-70
2022/12/22 16:00:49;;;;;;;16.48;7.78;;;7.90;99.90;;;;;;5018871;28;20064;-69
2022/12/22 16:03:14;;;;;;;19.38;9.20;;;7.90;99.90;;;;;;5036301;28;20049;-69
2022/12/22 16:05:40;;;;;;;17.10;7.78;;;7.90;99.90;;;;;;5036154;28;20124;-69
2022/12/22 16:08:14;;;;;;;15.60;7.72;;;7.80;99.90;;;;;;5035891;28;20037;-69
2022/12/22 16:10:41;;;;;;;17.50;7.07;;;7.80;99.90;;;;;;5035740;28;20119;-69
2022/12/22 16:13:11;;;;;;;19.98;8.55;;;7.80;99.90;;;;;;5035531;28;20119;-69
2022/12/22 16:15:37;;;;;;;12.85;7.10;;;7.70;99.90;;;;;;5035796;28;20092;-69
2022/12/22 16:18:03;;;;;;;14.63;7.82;;;7.80;99.90;;;;;;5018287;28;20429;-70
2022/12/22 16:20:35;;;;;;;19.42;11.05;;;7.70;99.90;;;;;;5035410;28;20041;-69
2022/12/22 16:23:02;;;;;;;20.17;10.13;;;8.00;99.90;;;;;;5035726;28;20477;-70
2022/12/22 16:25:33;;;;;;;26.40;17.25;;;7.90;99.90;;;;;;5035844;28;20061;-70
2022/12/22 16:28:00;;;;;;;31.08;23.58;;;7.70;99.90;;;;;;5035071;28;20124;-69
2022/12/22 16:30:28;;;;;;;29.23;18.33;;;7.60;99.90;;;;;;5035276;28;20049;-69
2022/12/22 16:32:54;;;;;;;20.70;15.00;;;7.60;99.90;;;;;;5035383;28;20037;-69